Thida, Arkansas
Current Conditions -  °F | °C
As of 6:35 PM on Saturday 25 Oct 2014 (Local Time) from KBVX Reporting Station
Clear Clear  
Wind Chill: 75°   Ceiling: Unl
Heat Index: 75°   Visibility: 10mi
Dew Point: 64°   Wind: 3mph
Humidity: 69%   Direction: 220°SW
Pressure: 30.01"   Gusts: NA
Location:  35.57°N, 91.48°W
Report Text: KBVX 252335Z AUTO 22003KT 10SM CLR 24/18 A3001 RMK AO1
Loading
Personal Weather Stations






























Interactive Weather Map
Tropical Storm Tracking
New forecast layout! Learn more

10-Day Weather Forecast

Advertisements
Track Severe Weather on mobile